sensor_id;sensor_type;location;lat;lon;timestamp;temperature;humidity
23873;DHT22;42884;50.718;4.630;2023-08-06T00:02:04;16.50;99.90
23873;DHT22;42884;50.718;4.630;2023-08-06T00:04:30;16.60;99.90
23873;DHT22;42884;50.718;4.630;2023-08-06T00:06:55;16.60;99.90
23873;DHT22;42884;50.718;4.630;2023-08-06T00:09:21;16.50;99.90
23873;DHT22;42884;50.718;4.630;2023-08-06T00:11:47;16.40;99.90
23873;DHT22;42884;50.718;4.630;2023-08-06T00:14:13;16.40;99.90
23873;DHT22;42884;50.718;4.630;2023-08-06T00:16:42;16.50;99.90
23873;DHT22;42884;50.718;4.630;2023-08-06T00:19:08;16.40;99.90
23873;DHT22;42884;50.718;4.630;2023-08-06T00:21:34;16.40;99.90
23873;DHT22;42884;50.718;4.630;2023-08-06T00:23:59;16.50;99.90
23873;DHT22;42884;50.718;4.630;2023-08-06T00:26:25;16.50;99.90
23873;DHT22;42884;50.718;4.630;2023-08-06T00:28:50;16.60;99.90
23873;DHT22;42884;50.718;4.630;2023-08-06T00:31:17;16.60;99.90
23873;DHT22;42884;50.718;4.630;2023-08-06T00:33:42;16.60;99.90
23873;DHT22;42884;50.718;4.630;2023-08-06T00:36:08;16.60;99.90
23873;DHT22;42884;50.718;4.630;2023-08-06T00:38:33;16.70;99.90
23873;DHT22;42884;50.718;4.630;2023-08-06T00:40:59;16.60;99.90
23873;DHT22;42884;50.718;4.630;2023-08-06T00:43:24;16.60;99.90
23873;DHT22;42884;50.718;4.630;2023-08-06T00:45:50;16.60;99.90
23873;DHT22;42884;50.718;4.630;2023-08-06T00:48:16;16.50;99.90
23873;DHT22;42884;50.718;4.630;2023-08-06T00:50:41;16.60;99.90
23873;DHT22;42884;50.718;4.630;2023-08-06T00:53:07;16.60;99.90
23873;DHT22;42884;50.718;4.630;2023-08-06T00:55:33;16.70;99.90
23873;DHT22;42884;50.718;4.630;2023-08-06T00:57:59;16.60;99.90
23873;DHT22;42884;50.718;4.630;2023-08-06T01:00:25;16.70;99.90
23873;DHT22;42884;50.718;4.630;2023-08-06T01:02:51;16.80;99.90
23873;DHT22;42884;50.718;4.630;2023-08-06T01:05:17;16.70;99.90
23873;DHT22;42884;50.718;4.630;2023-08-06T01:10:40;16.70;99.90
23873;DHT22;42884;50.718;4.630;2023-08-06T01:15:49;16.70;99.90
23873;DHT22;42884;50.718;4.630;2023-08-06T01:18:15;16.80;99.90
23873;DHT22;42884;50.718;4.630;2023-08-06T01:20:41;16.80;99.90
23873;DHT22;42884;50.718;4.630;2023-08-06T01:23:06;16.80;99.90
23873;DHT22;42884;50.718;4.630;2023-08-06T01:25:53;16.80;99.90
23873;DHT22;42884;50.718;4.630;2023-08-06T01:28:24;16.80;99.90
23873;DHT22;42884;50.718;4.630;2023-08-06T01:30:53;16.80;99.90
23873;DHT22;42884;50.718;4.630;2023-08-06T01:33:21;16.90;99.90
23873;DHT22;42884;50.718;4.630;2023-08-06T01:35:48;16.80;99.90
23873;DHT22;42884;50.718;4.630;2023-08-06T01:38:15;16.70;99.90
23873;DHT22;42884;50.718;4.630;2023-08-06T01:40:40;16.60;99.90
23873;DHT22;42884;50.718;4.630;2023-08-06T01:43:06;16.70;99.90
23873;DHT22;42884;50.718;4.630;2023-08-06T01:45:32;16.80;99.90
23873;DHT22;42884;50.718;4.630;2023-08-06T01:47:57;16.80;99.90
23873;DHT22;42884;50.718;4.630;2023-08-06T01:50:23;16.80;99.90
23873;DHT22;42884;50.718;4.630;2023-08-06T01:52:48;16.80;99.90
23873;DHT22;42884;50.718;4.630;2023-08-06T01:55:14;16.70;99.90
23873;DHT22;42884;50.718;4.630;2023-08-06T01:57:40;16.70;99.90
23873;DHT22;42884;50.718;4.630;2023-08-06T02:00:05;16.70;99.90
23873;DHT22;42884;50.718;4.630;2023-08-06T02:02:31;16.70;99.90
23873;DHT22;42884;50.718;4.630;2023-08-06T02:04:57;16.70;99.90
23873;DHT22;42884;50.718;4.630;2023-08-06T02:07:23;16.60;99.90
23873;DHT22;42884;50.718;4.630;2023-08-06T02:09:49;16.60;99.90
23873;DHT22;42884;50.718;4.630;2023-08-06T02:12:14;16.50;99.90
23873;DHT22;42884;50.718;4.630;2023-08-06T02:14:40;16.40;99.90
23873;DHT22;42884;50.718;4.630;2023-08-06T02:17:05;16.40;99.90
23873;DHT22;42884;50.718;4.630;2023-08-06T02:19:31;16.50;99.90
23873;DHT22;42884;50.718;4.630;2023-08-06T02:21:57;16.50;99.90
23873;DHT22;42884;50.718;4.630;2023-08-06T02:24:23;16.50;99.90
23873;DHT22;42884;50.718;4.630;2023-08-06T02:26:48;16.50;99.90
23873;DHT22;42884;50.718;4.630;2023-08-06T02:29:17;16.40;99.90
23873;DHT22;42884;50.718;4.630;2023-08-06T02:31:42;16.50;99.90
23873;DHT22;42884;50.718;4.630;2023-08-06T02:34:08;16.50;99.90
23873;DHT22;42884;50.718;4.630;2023-08-06T02:36:34;16.40;99.90
23873;DHT22;42884;50.718;4.630;2023-08-06T02:38:59;16.30;99.90
23873;DHT22;42884;50.718;4.630;2023-08-06T02:41:25;16.30;99.90
23873;DHT22;42884;50.718;4.630;2023-08-06T02:43:52;16.20;99.90
23873;DHT22;42884;50.718;4.630;2023-08-06T02:46:17;16.10;99.90
23873;DHT22;42884;50.718;4.630;2023-08-06T02:48:43;16.20;99.90
23873;DHT22;42884;50.718;4.630;2023-08-06T02:51:08;16.20;99.90
23873;DHT22;42884;50.718;4.630;2023-08-06T02:53:34;16.20;99.90
23873;DHT22;42884;50.718;4.630;2023-08-06T02:56:00;16.10;99.90
23873;DHT22;42884;50.718;4.630;2023-08-06T02:58:25;16.10;99.90
23873;DHT22;42884;50.718;4.630;2023-08-06T03:01:04;16.20;99.90
23873;DHT22;42884;50.718;4.630;2023-08-06T03:03:30;16.30;99.90
23873;DHT22;42884;50.718;4.630;2023-08-06T03:05:56;16.30;99.90
23873;DHT22;42884;50.718;4.630;2023-08-06T03:08:22;16.30;99.90
23873;DHT22;42884;50.718;4.630;2023-08-06T03:10:48;16.40;99.90
23873;DHT22;42884;50.718;4.630;2023-08-06T03:13:15;16.30;99.90
23873;DHT22;42884;50.718;4.630;2023-08-06T03:15:40;16.30;99.90
23873;DHT22;42884;50.718;4.630;2023-08-06T03:18:06;16.30;99.90
23873;DHT22;42884;50.718;4.630;2023-08-06T03:20:32;16.30;99.90
23873;DHT22;42884;50.718;4.630;2023-08-06T03:22:57;16.30;99.90
23873;DHT22;42884;50.718;4.630;2023-08-06T03:25:23;16.30;99.90
23873;DHT22;42884;50.718;4.630;2023-08-06T03:27:48;16.40;99.90
23873;DHT22;42884;50.718;4.630;2023-08-06T03:30:14;16.30;99.90
23873;DHT22;42884;50.718;4.630;2023-08-06T03:32:40;16.30;99.90
23873;DHT22;42884;50.718;4.630;2023-08-06T03:35:05;16.30;99.90
23873;DHT22;42884;50.718;4.630;2023-08-06T03:37:31;16.40;99.90
23873;DHT22;42884;50.718;4.630;2023-08-06T03:39:56;16.40;99.90
23873;DHT22;42884;50.718;4.630;2023-08-06T03:42:22;16.50;99.90
23873;DHT22;42884;50.718;4.630;2023-08-06T03:44:48;16.40;99.90
23873;DHT22;42884;50.718;4.630;2023-08-06T03:47:13;16.20;99.90
23873;DHT22;42884;50.718;4.630;2023-08-06T03:49:39;16.20;99.90
23873;DHT22;42884;50.718;4.630;2023-08-06T03:52:05;16.20;99.90
23873;DHT22;42884;50.718;4.630;2023-08-06T03:54:30;16.20;99.90
23873;DHT22;42884;50.718;4.630;2023-08-06T03:56:56;16.20;99.90
23873;DHT22;42884;50.718;4.630;2023-08-06T03:59:22;16.20;99.90
23873;DHT22;42884;50.718;4.630;2023-08-06T04:01:47;16.20;99.90
23873;DHT22;42884;50.718;4.630;2023-08-06T04:04:13;16.30;99.90
23873;DHT22;42884;50.718;4.630;2023-08-06T04:06:38;16.20;99.90
23873;DHT22;42884;50.718;4.630;2023-08-06T04:09:04;16.20;99.90
23873;DHT22;42884;50.718;4.630;2023-08-06T04:11:30;16.10;99.90
23873;DHT22;42884;50.718;4.630;2023-08-06T04:13:55;16.20;99.90
23873;DHT22;42884;50.718;4.630;2023-08-06T04:16:21;16.20;99.90
23873;DHT22;42884;50.718;4.630;2023-08-06T04:18:46;16.20;99.90
23873;DHT22;42884;50.718;4.630;2023-08-06T04:21:12;16.20;99.90
23873;DHT22;42884;50.718;4.630;2023-08-06T04:23:38;16.20;99.90
23873;DHT22;42884;50.718;4.630;2023-08-06T04:26:03;16.20;99.90
23873;DHT22;42884;50.718;4.630;2023-08-06T04:28:29;16.20;99.90
23873;DHT22;42884;50.718;4.630;2023-08-06T04:30:55;16.20;99.90
23873;DHT22;42884;50.718;4.630;2023-08-06T04:33:20;16.30;99.90
23873;DHT22;42884;50.718;4.630;2023-08-06T04:35:46;16.30;99.90
23873;DHT22;42884;50.718;4.630;2023-08-06T04:38:12;16.20;99.90
23873;DHT22;42884;50.718;4.630;2023-08-06T04:40:37;16.20;99.90
23873;DHT22;42884;50.718;4.630;2023-08-06T04:43:03;16.20;99.90
23873;DHT22;42884;50.718;4.630;2023-08-06T04:45:29;16.00;99.90
23873;DHT22;42884;50.718;4.630;2023-08-06T04:47:54;15.90;99.90
23873;DHT22;42884;50.718;4.630;2023-08-06T04:50:20;15.90;99.90
23873;DHT22;42884;50.718;4.630;2023-08-06T04:52:45;15.90;99.90
23873;DHT22;42884;50.718;4.630;2023-08-06T04:55:11;15.90;99.90
23873;DHT22;42884;50.718;4.630;2023-08-06T04:57:37;15.80;99.90
23873;DHT22;42884;50.718;4.630;2023-08-06T05:00:03;15.60;99.90
23873;DHT22;42884;50.718;4.630;2023-08-06T05:02:29;15.50;99.90
23873;DHT22;42884;50.718;4.630;2023-08-06T05:04:57;15.40;99.90
23873;DHT22;42884;50.718;4.630;2023-08-06T05:07:23;15.40;99.90
23873;DHT22;42884;50.718;4.630;2023-08-06T05:09:49;15.30;99.90
23873;DHT22;42884;50.718;4.630;2023-08-06T05:12:14;15.20;99.90
23873;DHT22;42884;50.718;4.630;2023-08-06T05:14:40;15.20;99.90
23873;DHT22;42884;50.718;4.630;2023-08-06T05:17:05;15.20;99.90
23873;DHT22;42884;50.718;4.630;2023-08-06T05:19:31;15.20;99.90
23873;DHT22;42884;50.718;4.630;2023-08-06T05:21:57;15.10;99.90
23873;DHT22;42884;50.718;4.630;2023-08-06T05:24:22;15.00;99.90
23873;DHT22;42884;50.718;4.630;2023-08-06T05:26:48;15.00;99.90
23873;DHT22;42884;50.718;4.630;2023-08-06T05:29:14;14.90;99.90
23873;DHT22;42884;50.718;4.630;2023-08-06T05:31:39;14.80;99.90
23873;DHT22;42884;50.718;4.630;2023-08-06T05:34:05;14.90;99.90
23873;DHT22;42884;50.718;4.630;2023-08-06T05:36:31;14.80;99.90
23873;DHT22;42884;50.718;4.630;2023-08-06T05:38:56;14.80;99.90
23873;DHT22;42884;50.718;4.630;2023-08-06T05:41:22;14.80;99.90
23873;DHT22;42884;50.718;4.630;2023-08-06T05:43:48;14.70;99.90
23873;DHT22;42884;50.718;4.630;2023-08-06T05:46:13;14.70;99.90
23873;DHT22;42884;50.718;4.630;2023-08-06T05:48:39;14.70;99.90
23873;DHT22;42884;50.718;4.630;2023-08-06T05:51:04;14.70;99.90
23873;DHT22;42884;50.718;4.630;2023-08-06T05:53:30;14.70;99.90
23873;DHT22;42884;50.718;4.630;2023-08-06T05:55:55;14.80;99.90
23873;DHT22;42884;50.718;4.630;2023-08-06T05:58:21;14.80;99.90
23873;DHT22;42884;50.718;4.630;2023-08-06T06:00:47;14.80;99.90
23873;DHT22;42884;50.718;4.630;2023-08-06T06:03:12;14.90;99.90
23873;DHT22;42884;50.718;4.630;2023-08-06T06:05:38;14.90;99.90
23873;DHT22;42884;50.718;4.630;2023-08-06T06:08:04;14.80;99.90
23873;DHT22;42884;50.718;4.630;2023-08-06T06:10:29;14.80;99.90
23873;DHT22;42884;50.718;4.630;2023-08-06T06:12:56;14.80;99.90
23873;DHT22;42884;50.718;4.630;2023-08-06T06:15:21;14.90;99.90
23873;DHT22;42884;50.718;4.630;2023-08-06T06:17:47;14.90;99.90
23873;DHT22;42884;50.718;4.630;2023-08-06T06:20:12;15.00;99.90
23873;DHT22;42884;50.718;4.630;2023-08-06T06:22:38;15.00;99.90
23873;DHT22;42884;50.718;4.630;2023-08-06T06:25:04;15.00;99.90
23873;DHT22;42884;50.718;4.630;2023-08-06T06:27:30;15.10;99.90
23873;DHT22;42884;50.718;4.630;2023-08-06T06:29:55;15.20;99.90
23873;DHT22;42884;50.718;4.630;2023-08-06T06:32:21;15.10;99.90
23873;DHT22;42884;50.718;4.630;2023-08-06T06:34:47;15.10;99.90
23873;DHT22;42884;50.718;4.630;2023-08-06T06:37:12;15.10;99.90
23873;DHT22;42884;50.718;4.630;2023-08-06T06:39:38;15.10;99.90
23873;DHT22;42884;50.718;4.630;2023-08-06T06:42:04;15.10;99.90
23873;DHT22;42884;50.718;4.630;2023-08-06T06:44:30;15.10;99.90
23873;DHT22;42884;50.718;4.630;2023-08-06T06:46:55;15.20;99.90
23873;DHT22;42884;50.718;4.630;2023-08-06T06:49:21;15.20;99.90
23873;DHT22;42884;50.718;4.630;2023-08-06T06:51:46;15.20;99.90
23873;DHT22;42884;50.718;4.630;2023-08-06T06:54:12;15.20;99.90
23873;DHT22;42884;50.718;4.630;2023-08-06T06:56:38;15.20;99.90
23873;DHT22;42884;50.718;4.630;2023-08-06T06:59:03;15.20;99.90
23873;DHT22;42884;50.718;4.630;2023-08-06T07:01:29;15.20;99.90
23873;DHT22;42884;50.718;4.630;2023-08-06T07:03:54;15.30;99.90
23873;DHT22;42884;50.718;4.630;2023-08-06T07:06:20;15.40;99.90
23873;DHT22;42884;50.718;4.630;2023-08-06T07:08:46;15.40;99.90
23873;DHT22;42884;50.718;4.630;2023-08-06T07:11:11;15.50;99.90
23873;DHT22;42884;50.718;4.630;2023-08-06T07:13:37;15.50;99.90
23873;DHT22;42884;50.718;4.630;2023-08-06T07:16:02;15.60;99.90
23873;DHT22;42884;50.718;4.630;2023-08-06T07:18:28;15.60;99.90
23873;DHT22;42884;50.718;4.630;2023-08-06T07:20:54;15.70;99.90
23873;DHT22;42884;50.718;4.630;2023-08-06T07:23:20;15.70;99.90
23873;DHT22;42884;50.718;4.630;2023-08-06T07:25:46;15.70;99.90
23873;DHT22;42884;50.718;4.630;2023-08-06T07:28:12;15.90;99.90
23873;DHT22;42884;50.718;4.630;2023-08-06T07:30:38;15.70;99.90
23873;DHT22;42884;50.718;4.630;2023-08-06T07:33:04;15.50;99.90
23873;DHT22;42884;50.718;4.630;2023-08-06T07:35:29;15.60;99.90
23873;DHT22;42884;50.718;4.630;2023-08-06T07:37:55;15.60;99.90
23873;DHT22;42884;50.718;4.630;2023-08-06T07:40:20;15.60;99.90
23873;DHT22;42884;50.718;4.630;2023-08-06T07:42:46;15.60;99.90
23873;DHT22;42884;50.718;4.630;2023-08-06T07:45:12;15.60;99.90
23873;DHT22;42884;50.718;4.630;2023-08-06T07:47:37;15.60;99.90
23873;DHT22;42884;50.718;4.630;2023-08-06T07:50:03;15.60;99.90
23873;DHT22;42884;50.718;4.630;2023-08-06T07:52:29;15.80;99.90
23873;DHT22;42884;50.718;4.630;2023-08-06T07:54:54;15.80;99.90
23873;DHT22;42884;50.718;4.630;2023-08-06T07:57:20;15.70;99.90
23873;DHT22;42884;50.718;4.630;2023-08-06T07:59:45;15.70;99.90
23873;DHT22;42884;50.718;4.630;2023-08-06T08:02:11;15.80;99.90
23873;DHT22;42884;50.718;4.630;2023-08-06T08:04:36;15.80;99.90
23873;DHT22;42884;50.718;4.630;2023-08-06T08:07:02;15.70;99.90
23873;DHT22;42884;50.718;4.630;2023-08-06T08:09:28;15.80;99.90
23873;DHT22;42884;50.718;4.630;2023-08-06T08:11:53;15.80;99.90
23873;DHT22;42884;50.718;4.630;2023-08-06T08:14:19;15.60;99.90
23873;DHT22;42884;50.718;4.630;2023-08-06T08:16:45;15.80;99.90
23873;DHT22;42884;50.718;4.630;2023-08-06T08:19:10;15.80;99.90
23873;DHT22;42884;50.718;4.630;2023-08-06T08:21:36;15.90;99.90
23873;DHT22;42884;50.718;4.630;2023-08-06T08:24:03;15.90;99.90
23873;DHT22;42884;50.718;4.630;2023-08-06T08:26:29;16.20;99.90
23873;DHT22;42884;50.718;4.630;2023-08-06T08:28:55;16.20;99.90
23873;DHT22;42884;50.718;4.630;2023-08-06T08:31:21;16.50;99.90
23873;DHT22;42884;50.718;4.630;2023-08-06T08:33:47;16.70;99.90
23873;DHT22;42884;50.718;4.630;2023-08-06T08:36:12;16.80;99.90
23873;DHT22;42884;50.718;4.630;2023-08-06T08:38:38;17.00;99.90
23873;DHT22;42884;50.718;4.630;2023-08-06T08:41:04;17.10;99.90
23873;DHT22;42884;50.718;4.630;2023-08-06T08:43:29;17.10;99.90
23873;DHT22;42884;50.718;4.630;2023-08-06T08:45:56;17.00;99.90
23873;DHT22;42884;50.718;4.630;2023-08-06T08:48:24;17.00;99.90
23873;DHT22;42884;50.718;4.630;2023-08-06T08:50:49;16.90;99.90
23873;DHT22;42884;50.718;4.630;2023-08-06T08:53:16;16.70;99.90
23873;DHT22;42884;50.718;4.630;2023-08-06T08:55:42;16.60;99.90
23873;DHT22;42884;50.718;4.630;2023-08-06T08:58:08;16.30;99.90
23873;DHT22;42884;50.718;4.630;2023-08-06T09:00:34;16.10;99.90
23873;DHT22;42884;50.718;4.630;2023-08-06T09:03:00;16.10;99.90
23873;DHT22;42884;50.718;4.630;2023-08-06T09:05:28;16.10;99.90
23873;DHT22;42884;50.718;4.630;2023-08-06T09:07:55;16.00;99.90
23873;DHT22;42884;50.718;4.630;2023-08-06T09:10:26;16.20;99.90
23873;DHT22;42884;50.718;4.630;2023-08-06T09:12:52;16.20;99.90
23873;DHT22;42884;50.718;4.630;2023-08-06T09:15:19;16.10;99.90
23873;DHT22;42884;50.718;4.630;2023-08-06T09:17:45;16.10;99.90
23873;DHT22;42884;50.718;4.630;2023-08-06T09:20:14;16.10;99.90
23873;DHT22;42884;50.718;4.630;2023-08-06T09:22:40;16.30;99.90
23873;DHT22;42884;50.718;4.630;2023-08-06T09:25:06;16.40;99.90
23873;DHT22;42884;50.718;4.630;2023-08-06T09:27:38;16.40;99.90
23873;DHT22;42884;50.718;4.630;2023-08-06T09:30:04;16.50;99.90
23873;DHT22;42884;50.718;4.630;2023-08-06T09:35:29;16.30;99.90
23873;DHT22;42884;50.718;4.630;2023-08-06T09:37:55;16.30;99.90
23873;DHT22;42884;50.718;4.630;2023-08-06T09:40:24;16.30;99.90
23873;DHT22;42884;50.718;4.630;2023-08-06T09:42:51;16.30;99.90
23873;DHT22;42884;50.718;4.630;2023-08-06T09:45:17;16.20;99.90
23873;DHT22;42884;50.718;4.630;2023-08-06T09:47:42;16.20;99.90
23873;DHT22;42884;50.718;4.630;2023-08-06T09:50:14;16.20;99.90
23873;DHT22;42884;50.718;4.630;2023-08-06T09:52:41;16.10;99.90
23873;DHT22;42884;50.718;4.630;2023-08-06T09:55:07;16.10;99.90
23873;DHT22;42884;50.718;4.630;2023-08-06T09:57:32;16.10;99.90
23873;DHT22;42884;50.718;4.630;2023-08-06T09:59:58;16.00;99.90
23873;DHT22;42884;50.718;4.630;2023-08-06T10:02:24;16.00;99.90
23873;DHT22;42884;50.718;4.630;2023-08-06T10:04:51;15.80;99.90
23873;DHT22;42884;50.718;4.630;2023-08-06T10:07:18;15.80;99.90
23873;DHT22;42884;50.718;4.630;2023-08-06T10:09:44;15.70;99.90
23873;DHT22;42884;50.718;4.630;2023-08-06T10:12:09;15.70;99.90
23873;DHT22;42884;50.718;4.630;2023-08-06T10:14:36;15.80;99.90
23873;DHT22;42884;50.718;4.630;2023-08-06T10:17:02;15.70;99.90
23873;DHT22;42884;50.718;4.630;2023-08-06T10:19:28;15.90;99.90
23873;DHT22;42884;50.718;4.630;2023-08-06T10:25:15;15.80;99.90
23873;DHT22;42884;50.718;4.630;2023-08-06T10:27:35;15.80;99.90
23873;DHT22;42884;50.718;4.630;2023-08-06T10:32:49;16.00;99.90
23873;DHT22;42884;50.718;4.630;2023-08-06T10:38:18;16.00;99.90
23873;DHT22;42884;50.718;4.630;2023-08-06T10:43:27;16.10;99.90
23873;DHT22;42884;50.718;4.630;2023-08-06T10:45:53;16.10;99.90
23873;DHT22;42884;50.718;4.630;2023-08-06T10:48:29;16.00;99.90
23873;DHT22;42884;50.718;4.630;2023-08-06T10:50:56;16.00;99.90
23873;DHT22;42884;50.718;4.630;2023-08-06T10:53:22;15.90;99.90
23873;DHT22;42884;50.718;4.630;2023-08-06T10:55:48;15.70;99.90
23873;DHT22;42884;50.718;4.630;2023-08-06T10:58:15;15.70;99.90
23873;DHT22;42884;50.718;4.630;2023-08-06T11:00:40;15.60;99.90
23873;DHT22;42884;50.718;4.630;2023-08-06T11:03:06;15.60;99.90
23873;DHT22;42884;50.718;4.630;2023-08-06T11:05:32;15.60;99.90
23873;DHT22;42884;50.718;4.630;2023-08-06T11:07:58;15.50;99.90
23873;DHT22;42884;50.718;4.630;2023-08-06T11:10:23;15.40;99.90
23873;DHT22;42884;50.718;4.630;2023-08-06T11:12:49;15.30;99.90
23873;DHT22;42884;50.718;4.630;2023-08-06T11:15:15;15.30;99.90
23873;DHT22;42884;50.718;4.630;2023-08-06T11:17:40;15.40;99.90
23873;DHT22;42884;50.718;4.630;2023-08-06T11:20:06;15.50;99.90
23873;DHT22;42884;50.718;4.630;2023-08-06T11:22:32;15.60;99.90
23873;DHT22;42884;50.718;4.630;2023-08-06T11:24:58;15.80;99.90
23873;DHT22;42884;50.718;4.630;2023-08-06T11:27:25;15.90;99.90
23873;DHT22;42884;50.718;4.630;2023-08-06T11:29:52;16.10;99.90
23873;DHT22;42884;50.718;4.630;2023-08-06T11:32:17;16.10;99.90
23873;DHT22;42884;50.718;4.630;2023-08-06T11:34:43;16.20;99.90
23873;DHT22;42884;50.718;4.630;2023-08-06T11:37:09;16.20;99.90
23873;DHT22;42884;50.718;4.630;2023-08-06T11:39:36;16.20;99.90
23873;DHT22;42884;50.718;4.630;2023-08-06T11:42:02;16.10;99.90
23873;DHT22;42884;50.718;4.630;2023-08-06T11:44:32;16.10;99.90
23873;DHT22;42884;50.718;4.630;2023-08-06T11:46:58;16.10;99.90
23873;DHT22;42884;50.718;4.630;2023-08-06T11:49:42;16.00;99.90
23873;DHT22;42884;50.718;4.630;2023-08-06T11:52:24;16.00;99.90
23873;DHT22;42884;50.718;4.630;2023-08-06T11:55:03;16.10;99.90
23873;DHT22;42884;50.718;4.630;2023-08-06T11:57:32;16.10;99.90
23873;DHT22;42884;50.718;4.630;2023-08-06T12:00:01;16.10;99.90
23873;DHT22;42884;50.718;4.630;2023-08-06T12:02:30;16.00;99.90
23873;DHT22;42884;50.718;4.630;2023-08-06T12:07:38;16.20;99.90
23873;DHT22;42884;50.718;4.630;2023-08-06T12:10:03;16.20;99.90
23873;DHT22;42884;50.718;4.630;2023-08-06T12:12:30;16.00;99.90
23873;DHT22;42884;50.718;4.630;2023-08-06T12:14:55;15.80;99.90
23873;DHT22;42884;50.718;4.630;2023-08-06T12:17:22;15.80;99.90
23873;DHT22;42884;50.718;4.630;2023-08-06T12:19:47;15.70;99.90
23873;DHT22;42884;50.718;4.630;2023-08-06T12:22:13;15.60;99.90
23873;DHT22;42884;50.718;4.630;2023-08-06T12:24:40;15.60;99.90
23873;DHT22;42884;50.718;4.630;2023-08-06T12:27:05;15.80;99.90
23873;DHT22;42884;50.718;4.630;2023-08-06T12:29:31;15.90;99.90
23873;DHT22;42884;50.718;4.630;2023-08-06T12:31:57;15.80;99.90
23873;DHT22;42884;50.718;4.630;2023-08-06T12:34:22;15.90;99.90
23873;DHT22;42884;50.718;4.630;2023-08-06T12:36:48;15.90;99.90
23873;DHT22;42884;50.718;4.630;2023-08-06T12:39:14;16.00;99.90
23873;DHT22;42884;50.718;4.630;2023-08-06T12:41:39;16.10;99.90
23873;DHT22;42884;50.718;4.630;2023-08-06T12:44:05;16.20;99.90
23873;DHT22;42884;50.718;4.630;2023-08-06T12:46:30;16.50;99.90
23873;DHT22;42884;50.718;4.630;2023-08-06T12:48:56;16.70;99.90
23873;DHT22;42884;50.718;4.630;2023-08-06T12:51:23;16.70;99.90
23873;DHT22;42884;50.718;4.630;2023-08-06T12:53:49;16.90;99.90
23873;DHT22;42884;50.718;4.630;2023-08-06T12:56:14;16.90;99.90
23873;DHT22;42884;50.718;4.630;2023-08-06T12:58:40;17.00;99.90
23873;DHT22;42884;50.718;4.630;2023-08-06T13:01:07;16.90;99.90
23873;DHT22;42884;50.718;4.630;2023-08-06T13:03:32;16.90;99.90
23873;DHT22;42884;50.718;4.630;2023-08-06T13:05:58;16.70;99.90
23873;DHT22;42884;50.718;4.630;2023-08-06T13:08:23;16.50;99.90
23873;DHT22;42884;50.718;4.630;2023-08-06T13:10:49;16.30;99.90
23873;DHT22;42884;50.718;4.630;2023-08-06T13:13:15;16.30;99.90
23873;DHT22;42884;50.718;4.630;2023-08-06T13:15:40;16.30;99.90
23873;DHT22;42884;50.718;4.630;2023-08-06T13:18:06;16.10;99.90
23873;DHT22;42884;50.718;4.630;2023-08-06T13:20:31;16.20;99.90
23873;DHT22;42884;50.718;4.630;2023-08-06T13:22:58;16.10;99.90
23873;DHT22;42884;50.718;4.630;2023-08-06T13:25:23;16.20;99.90
23873;DHT22;42884;50.718;4.630;2023-08-06T13:27:50;16.20;99.90
23873;DHT22;42884;50.718;4.630;2023-08-06T13:30:16;16.30;99.90
23873;DHT22;42884;50.718;4.630;2023-08-06T13:32:43;16.20;99.90
23873;DHT22;42884;50.718;4.630;2023-08-06T13:35:09;16.00;99.90
23873;DHT22;42884;50.718;4.630;2023-08-06T13:37:35;16.00;99.90
23873;DHT22;42884;50.718;4.630;2023-08-06T13:40:01;16.00;99.90
23873;DHT22;42884;50.718;4.630;2023-08-06T13:42:26;16.00;99.90
23873;DHT22;42884;50.718;4.630;2023-08-06T13:44:52;16.10;99.90
23873;DHT22;42884;50.718;4.630;2023-08-06T13:47:18;16.00;99.90
23873;DHT22;42884;50.718;4.630;2023-08-06T13:49:43;16.00;99.90
23873;DHT22;42884;50.718;4.630;2023-08-06T13:52:09;15.90;99.90
23873;DHT22;42884;50.718;4.630;2023-08-06T13:54:35;15.90;99.90
23873;DHT22;42884;50.718;4.630;2023-08-06T13:57:00;15.90;99.90
23873;DHT22;42884;50.718;4.630;2023-08-06T13:59:26;15.90;99.90
23873;DHT22;42884;50.718;4.630;2023-08-06T14:01:51;15.70;99.90
23873;DHT22;42884;50.718;4.630;2023-08-06T14:04:18;15.80;99.90
23873;DHT22;42884;50.718;4.630;2023-08-06T14:06:45;15.80;99.90
23873;DHT22;42884;50.718;4.630;2023-08-06T14:09:11;15.70;99.90
23873;DHT22;42884;50.718;4.630;2023-08-06T14:11:39;15.70;99.90
23873;DHT22;42884;50.718;4.630;2023-08-06T14:14:04;15.60;99.90
23873;DHT22;42884;50.718;4.630;2023-08-06T14:16:30;15.50;99.90
23873;DHT22;42884;50.718;4.630;2023-08-06T14:18:56;15.50;99.90
23873;DHT22;42884;50.718;4.630;2023-08-06T14:21:21;15.40;99.90
23873;DHT22;42884;50.718;4.630;2023-08-06T14:23:47;15.40;99.90
23873;DHT22;42884;50.718;4.630;2023-08-06T14:26:13;15.30;99.90
23873;DHT22;42884;50.718;4.630;2023-08-06T14:28:40;15.30;99.90
23873;DHT22;42884;50.718;4.630;2023-08-06T14:31:06;15.40;99.90
23873;DHT22;42884;50.718;4.630;2023-08-06T14:33:32;15.40;99.90
23873;DHT22;42884;50.718;4.630;2023-08-06T14:35:57;15.40;99.90
23873;DHT22;42884;50.718;4.630;2023-08-06T14:38:23;15.40;99.90
23873;DHT22;42884;50.718;4.630;2023-08-06T14:40:48;15.40;99.90
23873;DHT22;42884;50.718;4.630;2023-08-06T14:43:14;15.50;99.90
23873;DHT22;42884;50.718;4.630;2023-08-06T14:45:40;15.40;99.90
23873;DHT22;42884;50.718;4.630;2023-08-06T14:48:06;15.50;99.90
23873;DHT22;42884;50.718;4.630;2023-08-06T14:50:31;15.40;99.90
23873;DHT22;42884;50.718;4.630;2023-08-06T14:52:57;15.50;99.90
23873;DHT22;42884;50.718;4.630;2023-08-06T14:55:26;15.40;99.90
23873;DHT22;42884;50.718;4.630;2023-08-06T14:57:52;15.40;99.90
23873;DHT22;42884;50.718;4.630;2023-08-06T15:00:18;15.30;99.90
23873;DHT22;42884;50.718;4.630;2023-08-06T15:02:44;15.30;99.90
23873;DHT22;42884;50.718;4.630;2023-08-06T15:05:09;15.40;99.90
23873;DHT22;42884;50.718;4.630;2023-08-06T15:07:35;15.50;99.90
23873;DHT22;42884;50.718;4.630;2023-08-06T15:10:01;15.50;99.90
23873;DHT22;42884;50.718;4.630;2023-08-06T15:12:28;15.60;99.90
23873;DHT22;42884;50.718;4.630;2023-08-06T15:14:53;15.80;99.90
23873;DHT22;42884;50.718;4.630;2023-08-06T15:17:22;15.80;99.90
23873;DHT22;42884;50.718;4.630;2023-08-06T15:19:48;15.80;99.90
23873;DHT22;42884;50.718;4.630;2023-08-06T15:22:13;15.70;99.90
23873;DHT22;42884;50.718;4.630;2023-08-06T15:24:39;15.80;99.90
23873;DHT22;42884;50.718;4.630;2023-08-06T15:27:10;15.70;99.90
23873;DHT22;42884;50.718;4.630;2023-08-06T15:29:37;15.70;99.90
23873;DHT22;42884;50.718;4.630;2023-08-06T15:32:03;15.70;99.90
23873;DHT22;42884;50.718;4.630;2023-08-06T15:34:28;15.70;99.90
23873;DHT22;42884;50.718;4.630;2023-08-06T15:36:54;15.70;99.90
23873;DHT22;42884;50.718;4.630;2023-08-06T15:39:20;15.80;99.90
23873;DHT22;42884;50.718;4.630;2023-08-06T15:41:45;16.00;99.90
23873;DHT22;42884;50.718;4.630;2023-08-06T15:44:11;16.20;99.90
23873;DHT22;42884;50.718;4.630;2023-08-06T15:46:37;16.20;99.90